Alert, Canada
Current Conditions -  °F | °C
As of 5:00 AM on Thursday 27 Nov 2014 (Local Time) from CWEU Reporting Station
Clear Clear  
Wind Chill: -43°   Ceiling: Unl
Heat Index: -34°   Visibility: 15mi
Dew Point: -39°   Wind: 6mph
Humidity: 62%   Direction: 140°SE
Pressure: 29.64"   Gusts: NA
Location:  82.47°N, 62.5°W
Report Text: CWEU 271000Z 14005KT 15SM SKC M34/M39 A2964 RMK SLP041
Loading
Personal Weather Stations






























Interactive Weather Map New forecast layout! Learn more

10-Day Weather Forecast

Advertisements
Track Severe Weather on mobile